sensor_id;sensor_type;location;lat;lon;timestamp;P1;durP1;ratioP1;P2;durP2;ratioP2
33094;SDS011;19459;53.044;8.910;2022-09-24T00:01:12;26.67;;;21.10;;
33094;SDS011;19459;53.044;8.910;2022-09-24T00:03:47;29.50;;;22.45;;
33094;SDS011;19459;53.044;8.910;2022-09-24T00:06:29;26.08;;;21.48;;
33094;SDS011;19459;53.044;8.910;2022-09-24T00:08:59;26.83;;;21.13;;
33094;SDS011;19459;53.044;8.910;2022-09-24T00:11:26;31.45;;;23.13;;
33094;SDS011;19459;53.044;8.910;2022-09-24T00:13:52;26.10;;;19.95;;
33094;SDS011;19459;53.044;8.910;2022-09-24T00:16:22;28.30;;;22.05;;
33094;SDS011;19459;53.044;8.910;2022-09-24T00:18:50;26.23;;;21.70;;
33094;SDS011;19459;53.044;8.910;2022-09-24T00:21:17;30.17;;;23.08;;
33094;SDS011;19459;53.044;8.910;2022-09-24T00:23:51;32.05;;;25.20;;
33094;SDS011;19459;53.044;8.910;2022-09-24T00:26:20;34.47;;;25.13;;
33094;SDS011;19459;53.044;8.910;2022-09-24T00:29:06;34.45;;;25.67;;
33094;SDS011;19459;53.044;8.910;2022-09-24T00:31:33;36.60;;;26.02;;
33094;SDS011;19459;53.044;8.910;2022-09-24T00:33:59;31.35;;;23.98;;
33094;SDS011;19459;53.044;8.910;2022-09-24T00:36:25;40.00;;;27.13;;
33094;SDS011;19459;53.044;8.910;2022-09-24T00:38:52;41.08;;;30.85;;
33094;SDS011;19459;53.044;8.910;2022-09-24T00:41:23;33.75;;;27.45;;
33094;SDS011;19459;53.044;8.910;2022-09-24T00:43:54;32.43;;;25.97;;
33094;SDS011;19459;53.044;8.910;2022-09-24T00:46:22;32.22;;;25.70;;
33094;SDS011;19459;53.044;8.910;2022-09-24T00:49:09;33.17;;;25.52;;
33094;SDS011;19459;53.044;8.910;2022-09-24T00:51:40;34.47;;;28.35;;
33094;SDS011;19459;53.044;8.910;2022-09-24T00:54:10;41.33;;;28.15;;
33094;SDS011;19459;53.044;8.910;2022-09-24T00:56:42;36.78;;;29.08;;
33094;SDS011;19459;53.044;8.910;2022-09-24T00:59:10;37.28;;;28.92;;
33094;SDS011;19459;53.044;8.910;2022-09-24T01:01:42;37.47;;;28.42;;
33094;SDS011;19459;53.044;8.910;2022-09-24T01:04:10;41.20;;;32.40;;
33094;SDS011;19459;53.044;8.910;2022-09-24T01:06:38;39.25;;;29.83;;
33094;SDS011;19459;53.044;8.910;2022-09-24T01:09:03;41.15;;;31.05;;
33094;SDS011;19459;53.044;8.910;2022-09-24T01:23:29;41.47;;;30.70;;
33094;SDS011;19459;53.044;8.910;2022-09-24T01:32:21;43.60;;;32.28;;
33094;SDS011;19459;53.044;8.910;2022-09-24T01:34:56;46.67;;;31.55;;
33094;SDS011;19459;53.044;8.910;2022-09-24T01:37:55;42.80;;;32.25;;
33094;SDS011;19459;53.044;8.910;2022-09-24T01:40:44;47.63;;;33.10;;
33094;SDS011;19459;53.044;8.910;2022-09-24T01:43:12;48.78;;;35.33;;
33094;SDS011;19459;53.044;8.910;2022-09-24T01:45:41;52.05;;;36.17;;
33094;SDS011;19459;53.044;8.910;2022-09-24T01:48:07;48.13;;;37.13;;
33094;SDS011;19459;53.044;8.910;2022-09-24T01:50:37;58.00;;;40.58;;
33094;SDS011;19459;53.044;8.910;2022-09-24T01:53:21;56.70;;;41.08;;
33094;SDS011;19459;53.044;8.910;2022-09-24T01:55:54;57.17;;;42.15;;
33094;SDS011;19459;53.044;8.910;2022-09-24T01:58:39;62.95;;;42.63;;
33094;SDS011;19459;53.044;8.910;2022-09-24T02:01:14;55.17;;;39.47;;
33094;SDS011;19459;53.044;8.910;2022-09-24T02:03:50;54.88;;;41.97;;
33094;SDS011;19459;53.044;8.910;2022-09-24T02:09:36;55.40;;;39.55;;
33094;SDS011;19459;53.044;8.910;2022-09-24T02:12:11;57.33;;;42.88;;
33094;SDS011;19459;53.044;8.910;2022-09-24T02:14:48;62.75;;;42.55;;
33094;SDS011;19459;53.044;8.910;2022-09-24T02:17:22;58.78;;;43.70;;
33094;SDS011;19459;53.044;8.910;2022-09-24T02:19:49;67.65;;;45.30;;
33094;SDS011;19459;53.044;8.910;2022-09-24T02:22:18;63.25;;;46.72;;
33094;SDS011;19459;53.044;8.910;2022-09-24T02:24:46;64.88;;;46.50;;
33094;SDS011;19459;53.044;8.910;2022-09-24T02:27:16;68.68;;;48.00;;
33094;SDS011;19459;53.044;8.910;2022-09-24T02:29:43;67.15;;;47.50;;
33094;SDS011;19459;53.044;8.910;2022-09-24T02:32:10;66.07;;;45.78;;
33094;SDS011;19459;53.044;8.910;2022-09-24T02:34:41;56.92;;;42.33;;
33094;SDS011;19459;53.044;8.910;2022-09-24T02:37:12;59.22;;;45.72;;
33094;SDS011;19459;53.044;8.910;2022-09-24T02:39:40;64.07;;;45.15;;
33094;SDS011;19459;53.044;8.910;2022-09-24T02:42:07;66.47;;;47.65;;
33094;SDS011;19459;53.044;8.910;2022-09-24T02:44:37;61.35;;;46.58;;
33094;SDS011;19459;53.044;8.910;2022-09-24T02:47:03;59.38;;;44.97;;
33094;SDS011;19459;53.044;8.910;2022-09-24T02:49:30;70.95;;;49.03;;
33094;SDS011;19459;53.044;8.910;2022-09-24T02:51:56;64.80;;;47.25;;
33094;SDS011;19459;53.044;8.910;2022-09-24T02:54:22;69.10;;;47.92;;
33094;SDS011;19459;53.044;8.910;2022-09-24T02:56:49;63.42;;;48.13;;
33094;SDS011;19459;53.044;8.910;2022-09-24T02:59:15;64.28;;;48.03;;
33094;SDS011;19459;53.044;8.910;2022-09-24T03:01:42;63.53;;;48.00;;
33094;SDS011;19459;53.044;8.910;2022-09-24T03:04:08;60.78;;;46.22;;
33094;SDS011;19459;53.044;8.910;2022-09-24T03:06:34;68.43;;;48.25;;
33094;SDS011;19459;53.044;8.910;2022-09-24T03:09:00;67.40;;;46.58;;
33094;SDS011;19459;53.044;8.910;2022-09-24T03:11:27;68.22;;;47.78;;
33094;SDS011;19459;53.044;8.910;2022-09-24T03:13:56;62.65;;;45.63;;
33094;SDS011;19459;53.044;8.910;2022-09-24T03:16:23;62.90;;;45.75;;
33094;SDS011;19459;53.044;8.910;2022-09-24T03:18:49;59.97;;;44.20;;
33094;SDS011;19459;53.044;8.910;2022-09-24T03:21:16;59.50;;;42.95;;
33094;SDS011;19459;53.044;8.910;2022-09-24T03:23:46;57.45;;;42.28;;
33094;SDS011;19459;53.044;8.910;2022-09-24T03:26:12;61.22;;;43.03;;
33094;SDS011;19459;53.044;8.910;2022-09-24T03:28:38;63.95;;;44.75;;
33094;SDS011;19459;53.044;8.910;2022-09-24T03:31:04;60.60;;;41.97;;
33094;SDS011;19459;53.044;8.910;2022-09-24T03:33:33;64.05;;;45.75;;
33094;SDS011;19459;53.044;8.910;2022-09-24T03:36:16;65.97;;;45.03;;
33094;SDS011;19459;53.044;8.910;2022-09-24T03:38:53;72.03;;;46.42;;
33094;SDS011;19459;53.044;8.910;2022-09-24T03:41:21;68.13;;;46.00;;
33094;SDS011;19459;53.044;8.910;2022-09-24T03:43:48;64.03;;;46.95;;
33094;SDS011;19459;53.044;8.910;2022-09-24T03:46:14;74.38;;;48.22;;
33094;SDS011;19459;53.044;8.910;2022-09-24T03:48:41;71.50;;;45.28;;
33094;SDS011;19459;53.044;8.910;2022-09-24T03:51:14;66.80;;;47.80;;
33094;SDS011;19459;53.044;8.910;2022-09-24T03:53:42;71.72;;;47.30;;
33094;SDS011;19459;53.044;8.910;2022-09-24T03:56:09;69.43;;;48.03;;
33094;SDS011;19459;53.044;8.910;2022-09-24T03:58:36;69.85;;;49.05;;
33094;SDS011;19459;53.044;8.910;2022-09-24T04:01:06;70.43;;;46.00;;
33094;SDS011;19459;53.044;8.910;2022-09-24T04:03:33;72.22;;;48.45;;
33094;SDS011;19459;53.044;8.910;2022-09-24T04:06:00;73.25;;;49.00;;
33094;SDS011;19459;53.044;8.910;2022-09-24T04:08:26;73.97;;;50.33;;
33094;SDS011;19459;53.044;8.910;2022-09-24T04:10:52;78.78;;;51.08;;
33094;SDS011;19459;53.044;8.910;2022-09-24T04:13:19;78.55;;;49.63;;
33094;SDS011;19459;53.044;8.910;2022-09-24T04:15:45;75.07;;;49.10;;
33094;SDS011;19459;53.044;8.910;2022-09-24T04:18:12;73.25;;;48.58;;
33094;SDS011;19459;53.044;8.910;2022-09-24T04:20:38;72.45;;;49.30;;
33094;SDS011;19459;53.044;8.910;2022-09-24T04:23:05;78.38;;;50.28;;
33094;SDS011;19459;53.044;8.910;2022-09-24T04:25:32;79.85;;;49.50;;
33094;SDS011;19459;53.044;8.910;2022-09-24T04:27:59;81.05;;;50.58;;
33094;SDS011;19459;53.044;8.910;2022-09-24T04:30:31;71.32;;;48.78;;
33094;SDS011;19459;53.044;8.910;2022-09-24T04:32:59;79.55;;;49.05;;
33094;SDS011;19459;53.044;8.910;2022-09-24T04:35:27;75.82;;;49.60;;
33094;SDS011;19459;53.044;8.910;2022-09-24T04:37:55;77.60;;;49.22;;
33094;SDS011;19459;53.044;8.910;2022-09-24T04:40:23;78.68;;;51.00;;
33094;SDS011;19459;53.044;8.910;2022-09-24T04:42:49;76.80;;;48.78;;
33094;SDS011;19459;53.044;8.910;2022-09-24T04:45:15;75.68;;;47.55;;
33094;SDS011;19459;53.044;8.910;2022-09-24T04:47:43;74.53;;;48.90;;
33094;SDS011;19459;53.044;8.910;2022-09-24T04:50:10;73.03;;;47.28;;
33094;SDS011;19459;53.044;8.910;2022-09-24T04:52:37;71.22;;;47.65;;
33094;SDS011;19459;53.044;8.910;2022-09-24T04:55:04;74.68;;;48.08;;
33094;SDS011;19459;53.044;8.910;2022-09-24T04:57:30;76.85;;;47.75;;
33094;SDS011;19459;53.044;8.910;2022-09-24T05:00:00;70.00;;;46.58;;
33094;SDS011;19459;53.044;8.910;2022-09-24T05:02:32;75.25;;;47.08;;
33094;SDS011;19459;53.044;8.910;2022-09-24T05:04:58;76.20;;;48.53;;
33094;SDS011;19459;53.044;8.910;2022-09-24T05:07:24;76.60;;;49.33;;
33094;SDS011;19459;53.044;8.910;2022-09-24T05:09:49;82.90;;;50.28;;
33094;SDS011;19459;53.044;8.910;2022-09-24T05:12:15;81.32;;;51.72;;
33094;SDS011;19459;53.044;8.910;2022-09-24T05:14:42;86.63;;;51.08;;
33094;SDS011;19459;53.044;8.910;2022-09-24T05:17:07;80.50;;;50.97;;
33094;SDS011;19459;53.044;8.910;2022-09-24T05:19:33;83.47;;;50.85;;
33094;SDS011;19459;53.044;8.910;2022-09-24T05:21:59;81.47;;;52.35;;
33094;SDS011;19459;53.044;8.910;2022-09-24T05:24:25;86.78;;;54.33;;
33094;SDS011;19459;53.044;8.910;2022-09-24T05:26:50;82.85;;;52.50;;
33094;SDS011;19459;53.044;8.910;2022-09-24T05:29:41;89.82;;;55.58;;
33094;SDS011;19459;53.044;8.910;2022-09-24T05:32:08;88.70;;;54.40;;
33094;SDS011;19459;53.044;8.910;2022-09-24T05:34:38;91.85;;;56.28;;
33094;SDS011;19459;53.044;8.910;2022-09-24T05:37:05;90.88;;;53.20;;
33094;SDS011;19459;53.044;8.910;2022-09-24T05:39:31;95.85;;;57.30;;
33094;SDS011;19459;53.044;8.910;2022-09-24T05:42:00;96.47;;;57.00;;
33094;SDS011;19459;53.044;8.910;2022-09-24T05:44:31;98.95;;;60.60;;
33094;SDS011;19459;53.044;8.910;2022-09-24T05:46:57;102.85;;;61.92;;
33094;SDS011;19459;53.044;8.910;2022-09-24T05:49:23;97.22;;;57.90;;
33094;SDS011;19459;53.044;8.910;2022-09-24T05:51:49;97.18;;;57.72;;
33094;SDS011;19459;53.044;8.910;2022-09-24T05:54:16;98.85;;;60.75;;
33094;SDS011;19459;53.044;8.910;2022-09-24T05:56:43;96.30;;;57.88;;
33094;SDS011;19459;53.044;8.910;2022-09-24T05:59:09;92.38;;;58.42;;
33094;SDS011;19459;53.044;8.910;2022-09-24T06:01:35;91.32;;;56.60;;
33094;SDS011;19459;53.044;8.910;2022-09-24T06:04:01;99.80;;;60.30;;
33094;SDS011;19459;53.044;8.910;2022-09-24T06:06:27;81.85;;;54.17;;
33094;SDS011;19459;53.044;8.910;2022-09-24T06:08:53;93.05;;;59.03;;
33094;SDS011;19459;53.044;8.910;2022-09-24T06:11:19;84.35;;;55.17;;
33094;SDS011;19459;53.044;8.910;2022-09-24T06:13:48;90.47;;;56.13;;
33094;SDS011;19459;53.044;8.910;2022-09-24T06:16:17;87.13;;;55.83;;
33094;SDS011;19459;53.044;8.910;2022-09-24T06:18:43;95.22;;;57.65;;
33094;SDS011;19459;53.044;8.910;2022-09-24T06:21:12;92.80;;;58.53;;
33094;SDS011;19459;53.044;8.910;2022-09-24T06:23:41;95.68;;;58.78;;
33094;SDS011;19459;53.044;8.910;2022-09-24T06:26:09;94.13;;;57.05;;
33094;SDS011;19459;53.044;8.910;2022-09-24T06:28:39;85.50;;;55.15;;
33094;SDS011;19459;53.044;8.910;2022-09-24T06:31:09;85.93;;;56.95;;
33094;SDS011;19459;53.044;8.910;2022-09-24T06:33:36;91.00;;;57.63;;
33094;SDS011;19459;53.044;8.910;2022-09-24T06:36:06;85.30;;;54.63;;
33094;SDS011;19459;53.044;8.910;2022-09-24T06:38:32;89.85;;;56.35;;
33094;SDS011;19459;53.044;8.910;2022-09-24T06:40:59;86.22;;;56.67;;
33094;SDS011;19459;53.044;8.910;2022-09-24T06:43:27;93.45;;;57.45;;
33094;SDS011;19459;53.044;8.910;2022-09-24T06:45:54;85.82;;;55.50;;
33094;SDS011;19459;53.044;8.910;2022-09-24T06:48:21;84.70;;;55.90;;
33094;SDS011;19459;53.044;8.910;2022-09-24T06:50:48;92.20;;;57.38;;
33094;SDS011;19459;53.044;8.910;2022-09-24T06:53:14;93.13;;;57.83;;
33094;SDS011;19459;53.044;8.910;2022-09-24T06:55:40;94.28;;;59.60;;
33094;SDS011;19459;53.044;8.910;2022-09-24T06:58:08;81.75;;;55.38;;
33094;SDS011;19459;53.044;8.910;2022-09-24T07:00:38;93.28;;;58.55;;
33094;SDS011;19459;53.044;8.910;2022-09-24T07:03:05;88.38;;;57.25;;
33094;SDS011;19459;53.044;8.910;2022-09-24T07:05:32;92.45;;;59.67;;
33094;SDS011;19459;53.044;8.910;2022-09-24T07:07:58;92.80;;;57.45;;
33094;SDS011;19459;53.044;8.910;2022-09-24T07:10:24;95.30;;;60.38;;
33094;SDS011;19459;53.044;8.910;2022-09-24T07:12:51;91.97;;;58.08;;
33094;SDS011;19459;53.044;8.910;2022-09-24T07:15:17;92.72;;;60.55;;
33094;SDS011;19459;53.044;8.910;2022-09-24T07:17:42;94.60;;;60.35;;
33094;SDS011;19459;53.044;8.910;2022-09-24T07:20:08;94.47;;;61.58;;
33094;SDS011;19459;53.044;8.910;2022-09-24T07:22:40;95.85;;;60.83;;
33094;SDS011;19459;53.044;8.910;2022-09-24T07:25:07;98.22;;;59.08;;
33094;SDS011;19459;53.044;8.910;2022-09-24T07:27:35;91.53;;;58.92;;
33094;SDS011;19459;53.044;8.910;2022-09-24T07:30:06;96.82;;;61.45;;
33094;SDS011;19459;53.044;8.910;2022-09-24T07:32:34;99.38;;;62.03;;
33094;SDS011;19459;53.044;8.910;2022-09-24T07:35:00;88.07;;;59.33;;
33094;SDS011;19459;53.044;8.910;2022-09-24T07:37:26;97.20;;;60.35;;
33094;SDS011;19459;53.044;8.910;2022-09-24T07:39:51;97.18;;;59.28;;
33094;SDS011;19459;53.044;8.910;2022-09-24T07:42:17;103.90;;;62.88;;
33094;SDS011;19459;53.044;8.910;2022-09-24T07:44:43;97.75;;;61.10;;
33094;SDS011;19459;53.044;8.910;2022-09-24T07:47:09;93.60;;;60.10;;
33094;SDS011;19459;53.044;8.910;2022-09-24T07:49:35;99.45;;;62.20;;
33094;SDS011;19459;53.044;8.910;2022-09-24T07:52:02;99.63;;;63.40;;
33094;SDS011;19459;53.044;8.910;2022-09-24T07:54:28;101.47;;;64.82;;
33094;SDS011;19459;53.044;8.910;2022-09-24T07:56:55;101.47;;;63.03;;
33094;SDS011;19459;53.044;8.910;2022-09-24T07:59:21;105.32;;;64.03;;
33094;SDS011;19459;53.044;8.910;2022-09-24T08:01:47;112.07;;;65.18;;
33094;SDS011;19459;53.044;8.910;2022-09-24T08:04:13;105.25;;;64.97;;
33094;SDS011;19459;53.044;8.910;2022-09-24T08:06:38;114.28;;;68.18;;
33094;SDS011;19459;53.044;8.910;2022-09-24T08:09:04;109.70;;;66.25;;
33094;SDS011;19459;53.044;8.910;2022-09-24T08:11:30;112.30;;;67.43;;
33094;SDS011;19459;53.044;8.910;2022-09-24T08:13:57;116.72;;;67.53;;
33094;SDS011;19459;53.044;8.910;2022-09-24T08:16:24;120.05;;;69.68;;
33094;SDS011;19459;53.044;8.910;2022-09-24T08:18:51;119.30;;;69.15;;
33094;SDS011;19459;53.044;8.910;2022-09-24T08:21:17;126.43;;;73.43;;
33094;SDS011;19459;53.044;8.910;2022-09-24T08:23:43;133.27;;;73.75;;
33094;SDS011;19459;53.044;8.910;2022-09-24T08:26:10;121.93;;;73.32;;
33094;SDS011;19459;53.044;8.910;2022-09-24T08:28:37;129.45;;;75.40;;
33094;SDS011;19459;53.044;8.910;2022-09-24T08:31:06;124.93;;;73.35;;
33094;SDS011;19459;53.044;8.910;2022-09-24T08:33:36;134.15;;;75.68;;
33094;SDS011;19459;53.044;8.910;2022-09-24T08:36:03;122.38;;;73.60;;
33094;SDS011;19459;53.044;8.910;2022-09-24T08:38:32;132.07;;;74.65;;
33094;SDS011;19459;53.044;8.910;2022-09-24T08:43:43;129.55;;;73.72;;
33094;SDS011;19459;53.044;8.910;2022-09-24T08:47:10;145.82;;;76.53;;
33094;SDS011;19459;53.044;8.910;2022-09-24T08:49:46;143.32;;;77.60;;
33094;SDS011;19459;53.044;8.910;2022-09-24T08:52:23;138.55;;;78.05;;
33094;SDS011;19459;53.044;8.910;2022-09-24T08:54:57;138.05;;;78.03;;
33094;SDS011;19459;53.044;8.910;2022-09-24T08:57:31;131.95;;;72.47;;
33094;SDS011;19459;53.044;8.910;2022-09-24T09:00:12;129.40;;;75.10;;
33094;SDS011;19459;53.044;8.910;2022-09-24T09:02:40;140.15;;;75.05;;
33094;SDS011;19459;53.044;8.910;2022-09-24T09:08:12;137.80;;;75.07;;
33094;SDS011;19459;53.044;8.910;2022-09-24T09:10:55;133.82;;;77.85;;
33094;SDS011;19459;53.044;8.910;2022-09-24T09:13:29;139.93;;;74.75;;
33094;SDS011;19459;53.044;8.910;2022-09-24T09:16:08;143.30;;;75.80;;
33094;SDS011;19459;53.044;8.910;2022-09-24T09:18:48;133.60;;;72.10;;
33094;SDS011;19459;53.044;8.910;2022-09-24T09:24:14;130.75;;;76.00;;
33094;SDS011;19459;53.044;8.910;2022-09-24T09:26:47;121.72;;;72.78;;
33094;SDS011;19459;53.044;8.910;2022-09-24T09:29:21;131.48;;;73.95;;
33094;SDS011;19459;53.044;8.910;2022-09-24T09:37:56;130.15;;;74.05;;
33094;SDS011;19459;53.044;8.910;2022-09-24T09:43:18;114.88;;;69.57;;
33094;SDS011;19459;53.044;8.910;2022-09-24T09:46:04;118.63;;;70.68;;
33094;SDS011;19459;53.044;8.910;2022-09-24T09:48:51;116.43;;;69.53;;
33094;SDS011;19459;53.044;8.910;2022-09-24T09:51:24;121.75;;;66.93;;
33094;SDS011;19459;53.044;8.910;2022-09-24T09:53:54;117.18;;;69.35;;
33094;SDS011;19459;53.044;8.910;2022-09-24T09:56:27;109.45;;;63.88;;
33094;SDS011;19459;53.044;8.910;2022-09-24T10:01:37;109.00;;;64.47;;
33094;SDS011;19459;53.044;8.910;2022-09-24T10:04:20;102.00;;;63.42;;
33094;SDS011;19459;53.044;8.910;2022-09-24T10:07:06;109.38;;;66.38;;
33094;SDS011;19459;53.044;8.910;2022-09-24T10:09:40;108.63;;;63.92;;
33094;SDS011;19459;53.044;8.910;2022-09-24T10:14:55;112.47;;;65.97;;
33094;SDS011;19459;53.044;8.910;2022-09-24T10:17:38;101.30;;;61.22;;
33094;SDS011;19459;53.044;8.910;2022-09-24T10:20:08;112.72;;;65.70;;
33094;SDS011;19459;53.044;8.910;2022-09-24T10:22:48;106.97;;;64.82;;
33094;SDS011;19459;53.044;8.910;2022-09-24T10:25:21;106.55;;;64.75;;
33094;SDS011;19459;53.044;8.910;2022-09-24T10:27:51;104.95;;;61.28;;
33094;SDS011;19459;53.044;8.910;2022-09-24T10:30:47;100.85;;;63.20;;
33094;SDS011;19459;53.044;8.910;2022-09-24T10:33:17;103.63;;;60.33;;
33094;SDS011;19459;53.044;8.910;2022-09-24T10:35:43;103.90;;;61.65;;
33094;SDS011;19459;53.044;8.910;2022-09-24T10:38:19;108.55;;;62.53;;
33094;SDS011;19459;53.044;8.910;2022-09-24T10:40:47;95.70;;;58.70;;
33094;SDS011;19459;53.044;8.910;2022-09-24T10:43:17;113.97;;;63.35;;
33094;SDS011;19459;53.044;8.910;2022-09-24T10:56:57;105.07;;;59.67;;
33094;SDS011;19459;53.044;8.910;2022-09-24T10:59:45;94.18;;;59.22;;
33094;SDS011;19459;53.044;8.910;2022-09-24T11:05:02;87.40;;;56.95;;
33094;SDS011;19459;53.044;8.910;2022-09-24T11:07:51;98.88;;;61.00;;
33094;SDS011;19459;53.044;8.910;2022-09-24T11:13:50;78.63;;;52.15;;
33094;SDS011;19459;53.044;8.910;2022-09-24T11:22:21;88.82;;;54.03;;
33094;SDS011;19459;53.044;8.910;2022-09-24T11:28:26;79.97;;;52.03;;
33094;SDS011;19459;53.044;8.910;2022-09-24T11:40:41;81.65;;;51.03;;
33094;SDS011;19459;53.044;8.910;2022-09-24T11:49:21;82.07;;;52.53;;
33094;SDS011;19459;53.044;8.910;2022-09-24T11:54:59;77.35;;;53.33;;
33094;SDS011;19459;53.044;8.910;2022-09-24T11:57:48;74.20;;;45.78;;
33094;SDS011;19459;53.044;8.910;2022-09-24T12:00:54;59.22;;;39.55;;
33094;SDS011;19459;53.044;8.910;2022-09-24T12:03:35;60.85;;;41.50;;
33094;SDS011;19459;53.044;8.910;2022-09-24T12:06:12;81.97;;;50.92;;
33094;SDS011;19459;53.044;8.910;2022-09-24T12:08:49;65.43;;;43.22;;
33094;SDS011;19459;53.044;8.910;2022-09-24T12:11:33;69.20;;;44.10;;
33094;SDS011;19459;53.044;8.910;2022-09-24T12:14:21;76.95;;;48.72;;
33094;SDS011;19459;53.044;8.910;2022-09-24T12:17:04;52.72;;;37.15;;
33094;SDS011;19459;53.044;8.910;2022-09-24T12:19:40;58.85;;;38.55;;
33094;SDS011;19459;53.044;8.910;2022-09-24T12:22:15;55.83;;;38.95;;
33094;SDS011;19459;53.044;8.910;2022-09-24T12:24:44;56.17;;;38.03;;
33094;SDS011;19459;53.044;8.910;2022-09-24T12:27:16;60.53;;;40.25;;
33094;SDS011;19459;53.044;8.910;2022-09-24T12:29:50;55.88;;;37.78;;
33094;SDS011;19459;53.044;8.910;2022-09-24T12:38:22;60.92;;;37.83;;
33094;SDS011;19459;53.044;8.910;2022-09-24T12:44:23;55.25;;;34.17;;
33094;SDS011;19459;53.044;8.910;2022-09-24T12:47:37;63.33;;;38.67;;
33094;SDS011;19459;53.044;8.910;2022-09-24T12:50:20;55.42;;;36.05;;
33094;SDS011;19459;53.044;8.910;2022-09-24T12:52:51;59.28;;;36.05;;
33094;SDS011;19459;53.044;8.910;2022-09-24T12:55:23;60.25;;;37.80;;
33094;SDS011;19459;53.044;8.910;2022-09-24T12:57:59;58.67;;;36.20;;
33094;SDS011;19459;53.044;8.910;2022-09-24T13:00:37;58.67;;;38.15;;
33094;SDS011;19459;53.044;8.910;2022-09-24T13:03:05;53.25;;;34.90;;
33094;SDS011;19459;53.044;8.910;2022-09-24T13:05:57;54.40;;;36.20;;
33094;SDS011;19459;53.044;8.910;2022-09-24T13:08:24;55.95;;;36.80;;
33094;SDS011;19459;53.044;8.910;2022-09-24T13:11:04;55.80;;;35.40;;
33094;SDS011;19459;53.044;8.910;2022-09-24T13:13:57;57.38;;;35.50;;
33094;SDS011;19459;53.044;8.910;2022-09-24T13:16:42;54.03;;;35.50;;
33094;SDS011;19459;53.044;8.910;2022-09-24T13:22:04;51.22;;;33.85;;
33094;SDS011;19459;53.044;8.910;2022-09-24T13:24:52;54.25;;;37.05;;
33094;SDS011;19459;53.044;8.910;2022-09-24T13:27:53;51.05;;;33.40;;
33094;SDS011;19459;53.044;8.910;2022-09-24T13:30:30;51.67;;;34.08;;
33094;SDS011;19459;53.044;8.910;2022-09-24T13:33:47;47.53;;;33.80;;
33094;SDS011;19459;53.044;8.910;2022-09-24T13:36:00;57.85;;;35.33;;
33094;SDS011;19459;53.044;8.910;2022-09-24T13:38:34;49.60;;;33.83;;
33094;SDS011;19459;53.044;8.910;2022-09-24T13:41:22;50.03;;;36.65;;
33094;SDS011;19459;53.044;8.910;2022-09-24T13:49:46;57.85;;;37.67;;
33094;SDS011;19459;53.044;8.910;2022-09-24T13:52:25;50.40;;;35.13;;
33094;SDS011;19459;53.044;8.910;2022-09-24T13:55:00;58.45;;;36.03;;
33094;SDS011;19459;53.044;8.910;2022-09-24T13:57:46;51.05;;;33.80;;
33094;SDS011;19459;53.044;8.910;2022-09-24T14:00:13;54.53;;;38.33;;
33094;SDS011;19459;53.044;8.910;2022-09-24T14:05:28;55.75;;;37.85;;
33094;SDS011;19459;53.044;8.910;2022-09-24T14:08:04;49.72;;;36.10;;
33094;SDS011;19459;53.044;8.910;2022-09-24T14:10:35;50.65;;;35.05;;
33094;SDS011;19459;53.044;8.910;2022-09-24T14:13:23;49.28;;;34.08;;
33094;SDS011;19459;53.044;8.910;2022-09-24T14:16:08;47.83;;;33.92;;
33094;SDS011;19459;53.044;8.910;2022-09-24T14:18:35;45.75;;;31.45;;
33094;SDS011;19459;53.044;8.910;2022-09-24T14:24:02;48.65;;;35.50;;
33094;SDS011;19459;53.044;8.910;2022-09-24T14:26:53;51.67;;;36.58;;
33094;SDS011;19459;53.044;8.910;2022-09-24T14:32:00;51.40;;;37.53;;
33094;SDS011;19459;53.044;8.910;2022-09-24T14:34:37;48.78;;;35.72;;
33094;SDS011;19459;53.044;8.910;2022-09-24T14:37:08;51.85;;;35.85;;
33094;SDS011;19459;53.044;8.910;2022-09-24T14:39:47;48.65;;;36.58;;
33094;SDS011;19459;53.044;8.910;2022-09-24T14:42:23;51.83;;;37.22;;
33094;SDS011;19459;53.044;8.910;2022-09-24T14:44:55;52.58;;;36.13;;
33094;SDS011;19459;53.044;8.910;2022-09-24T14:47:25;50.53;;;36.13;;
33094;SDS011;19459;53.044;8.910;2022-09-24T14:49:54;51.42;;;37.45;;
33094;SDS011;19459;53.044;8.910;2022-09-24T14:52:28;55.55;;;37.00;;
33094;SDS011;19459;53.044;8.910;2022-09-24T14:57:45;55.28;;;40.20;;
33094;SDS011;19459;53.044;8.910;2022-09-24T15:03:13;50.70;;;34.38;;
33094;SDS011;19459;53.044;8.910;2022-09-24T15:05:42;55.50;;;36.70;;
33094;SDS011;19459;53.044;8.910;2022-09-24T15:10:54;48.38;;;33.55;;
33094;SDS011;19459;53.044;8.910;2022-09-24T15:13:24;50.50;;;35.53;;
33094;SDS011;19459;53.044;8.910;2022-09-24T15:16:05;48.58;;;34.72;;
33094;SDS011;19459;53.044;8.910;2022-09-24T15:18:43;50.50;;;36.33;;
33094;SDS011;19459;53.044;8.910;2022-09-24T15:21:35;49.53;;;34.20;;
33094;SDS011;19459;53.044;8.910;2022-09-24T15:24:00;52.67;;;36.65;;
33094;SDS011;19459;53.044;8.910;2022-09-24T15:26:30;49.67;;;36.17;;
33094;SDS011;19459;53.044;8.910;2022-09-24T15:29:02;50.20;;;36.65;;
33094;SDS011;19459;53.044;8.910;2022-09-24T15:31:28;47.33;;;33.28;;
33094;SDS011;19459;53.044;8.910;2022-09-24T15:33:53;52.47;;;34.80;;
33094;SDS011;19459;53.044;8.910;2022-09-24T15:36:22;50.90;;;34.92;;
33094;SDS011;19459;53.044;8.910;2022-09-24T15:38:49;52.72;;;36.40;;
33094;SDS011;19459;53.044;8.910;2022-09-24T15:41:16;48.78;;;35.97;;
33094;SDS011;19459;53.044;8.910;2022-09-24T15:43:43;43.90;;;32.28;;
33094;SDS011;19459;53.044;8.910;2022-09-24T15:46:09;46.97;;;31.75;;
33094;SDS011;19459;53.044;8.910;2022-09-24T15:48:35;49.78;;;33.75;;
33094;SDS011;19459;53.044;8.910;2022-09-24T15:51:02;46.97;;;30.90;;
33094;SDS011;19459;53.044;8.910;2022-09-24T15:53:28;47.60;;;33.33;;
33094;SDS011;19459;53.044;8.910;2022-09-24T15:55:59;46.40;;;31.00;;
33094;SDS011;19459;53.044;8.910;2022-09-24T15:58:27;48.35;;;32.20;;
33094;SDS011;19459;53.044;8.910;2022-09-24T16:00:53;47.00;;;31.60;;
33094;SDS011;19459;53.044;8.910;2022-09-24T16:03:21;43.97;;;32.17;;
33094;SDS011;19459;53.044;8.910;2022-09-24T16:05:51;48.97;;;31.25;;
33094;SDS011;19459;53.044;8.910;2022-09-24T16:08:17;46.47;;;30.33;;
33094;SDS011;19459;53.044;8.910;2022-09-24T16:10:43;43.65;;;28.77;;
33094;SDS011;19459;53.044;8.910;2022-09-24T16:13:10;45.35;;;30.98;;
33094;SDS011;19459;53.044;8.910;2022-09-24T16:15:38;44.78;;;30.92;;
33094;SDS011;19459;53.044;8.910;2022-09-24T16:18:04;42.35;;;29.40;;
33094;SDS011;19459;53.044;8.910;2022-09-24T16:20:31;43.92;;;30.55;;
33094;SDS011;19459;53.044;8.910;2022-09-24T16:22:57;41.58;;;27.33;;
33094;SDS011;19459;53.044;8.910;2022-09-24T16:25:23;40.28;;;28.05;;
33094;SDS011;19459;53.044;8.910;2022-09-24T16:27:49;40.90;;;29.35;;
33094;SDS011;19459;53.044;8.910;2022-09-24T16:30:15;42.78;;;28.60;;
33094;SDS011;19459;53.044;8.910;2022-09-24T16:32:41;42.20;;;29.88;;
33094;SDS011;19459;53.044;8.910;2022-09-24T16:35:07;43.53;;;30.02;;
33094;SDS011;19459;53.044;8.910;2022-09-24T16:37:35;43.47;;;30.00;;
33094;SDS011;19459;53.044;8.910;2022-09-24T16:40:01;44.95;;;30.35;;
33094;SDS011;19459;53.044;8.910;2022-09-24T16:42:28;44.90;;;29.95;;
33094;SDS011;19459;53.044;8.910;2022-09-24T16:44:54;42.88;;;28.50;;
33094;SDS011;19459;53.044;8.910;2022-09-24T16:47:19;46.67;;;31.98;;